Time;durP1;ratioP1;P1;durP2;ratioP2;P2;SDS_P1;SDS_P2;PMS_P1;PMS_P2;Temp;Humidity;BMP_temperature;BMP_pressure;BME280_temperature;BME280_humidity;BME280_pressure;Samples;Min_cycle;Max_cycle;Signal;HPM_P1;HPM_P2
2023/03/11 00:00:21;;;;;;;15.50;11.87;;;;;;;;;;5068167;28;20258;-51
2023/03/11 00:02:48;;;;;;;16.17;12.63;;;;;;;;;;5065630;28;20263;-52
2023/03/11 00:05:16;;;;;;;17.70;13.37;;;;;;;;;;5068481;28;20283;-53
2023/03/11 00:07:42;;;;;;;18.30;12.30;;;;;;;;;;5068277;28;20326;-55
2023/03/11 00:10:13;;;;;;;15.87;12.03;;;;;;;;;;5069870;28;20666;-58
2023/03/11 00:12:41;;;;;;;17.43;12.43;;;;;;;;;;5058976;28;20241;-57
2023/03/11 00:15:08;;;;;;;15.00;11.13;;;;;;;;;;5070347;28;20341;-56
2023/03/11 00:17:34;;;;;;;12.83;11.10;;;;;;;;;;5071935;28;20321;-57
2023/03/11 00:20:01;;;;;;;14.70;11.27;;;;;;;;;;5071815;28;20299;-57
2023/03/11 00:22:27;;;;;;;14.67;11.57;;;;;;;;;;5072249;28;20255;-61
2023/03/11 00:24:54;;;;;;;15.03;12.30;;;;;;;;;;5072042;28;20694;-56
2023/03/11 00:27:20;;;;;;;18.13;11.27;;;;;;;;;;5069111;28;20231;-59
2023/03/11 00:29:48;;;;;;;15.77;11.53;;;;;;;;;;5071093;28;20309;-57
2023/03/11 00:32:14;;;;;;;13.90;11.07;;;;;;;;;;5066141;28;20226;-56
2023/03/11 00:34:40;;;;;;;14.77;12.17;;;;;;;;;;5070442;28;20234;-56
2023/03/11 00:37:07;;;;;;;16.97;11.57;;;;;;;;;;5066024;28;20242;-55
2023/03/11 00:39:34;;;;;;;15.77;12.10;;;;;;;;;;5066457;28;20660;-54
2023/03/11 00:42:00;;;;;;;15.60;11.57;;;;;;;;;;5063095;28;20651;-54
2023/03/11 00:44:27;;;;;;;17.77;13.93;;;;;;;;;;5061471;28;20321;-55
2023/03/11 00:46:54;;;;;;;15.63;13.07;;;;;;;;;;5061439;28;20326;-54
2023/03/11 00:49:21;;;;;;;19.80;14.50;;;;;;;;;;5066446;28;20234;-54
2023/03/11 00:51:47;;;;;;;19.43;14.20;;;;;;;;;;5063240;28;20245;-53
2023/03/11 00:54:13;;;;;;;16.80;13.77;;;;;;;;;;5062904;28;20242;-53
2023/03/11 00:56:40;;;;;;;19.20;14.30;;;;;;;;;;5066535;28;20260;-53
2023/03/11 00:59:07;;;;;;;19.77;15.57;;;;;;;;;;5059772;28;20227;-52
2023/03/11 01:01:33;;;;;;;22.30;15.50;;;;;;;;;;5060039;28;20243;-52
2023/03/11 01:04:01;;;;;;;20.57;15.50;;;;;;;;;;5065573;28;20238;-53
2023/03/11 01:06:27;;;;;;;19.57;15.53;;;;;;;;;;5065240;28;20235;-60
2023/03/11 01:08:53;;;;;;;20.83;16.47;;;;;;;;;;5065069;28;20240;-54
2023/03/11 01:11:20;;;;;;;21.97;16.70;;;;;;;;;;5061965;28;20231;-53
2023/03/11 01:13:46;;;;;;;18.87;15.47;;;;;;;;;;5061095;28;20234;-53
2023/03/11 01:16:13;;;;;;;19.47;15.40;;;;;;;;;;5063221;28;20235;-53
2023/03/11 01:18:39;;;;;;;20.67;15.57;;;;;;;;;;5052706;28;20244;-54
2023/03/11 01:21:07;;;;;;;20.77;15.97;;;;;;;;;;5063416;28;20243;-55
2023/03/11 01:23:33;;;;;;;21.90;15.70;;;;;;;;;;5063031;28;20654;-57
2023/03/11 01:26:00;;;;;;;19.23;13.63;;;;;;;;;;5065241;28;20317;-54
2023/03/11 01:28:26;;;;;;;18.03;13.63;;;;;;;;;;5059760;28;20234;-54
2023/03/11 01:30:53;;;;;;;17.37;14.03;;;;;;;;;;5058432;28;20258;-54
2023/03/11 01:33:19;;;;;;;17.57;12.53;;;;;;;;;;5058028;28;20247;-54
2023/03/11 01:35:46;;;;;;;15.50;11.57;;;;;;;;;;5061528;28;20223;-54
2023/03/11 01:38:14;;;;;;;13.47;11.33;;;;;;;;;;5060534;28;20227;-54
2023/03/11 01:40:42;;;;;;;13.47;10.03;;;;;;;;;;5068630;28;20234;-56
2023/03/11 01:43:23;;;;;;;10.50;9.03;;;;;;;;;;5060816;28;20249;-54
2023/03/11 01:46:08;;;;;;;9.37;8.07;;;;;;;;;;5059434;28;20242;-54
2023/03/11 01:48:34;;;;;;;9.03;7.10;;;;;;;;;;5066115;28;20324;-54
2023/03/11 01:51:01;;;;;;;8.53;7.10;;;;;;;;;;5070478;28;20665;-57
2023/03/11 01:53:28;;;;;;;6.37;5.40;;;;;;;;;;5064767;28;20234;-52
2023/03/11 01:55:55;;;;;;;5.10;4.33;;;;;;;;;;5060990;28;20244;-54
2023/03/11 01:58:23;;;;;;;5.73;3.90;;;;;;;;;;5063893;28;20257;-54
2023/03/11 02:00:50;;;;;;;5.63;5.03;;;;;;;;;;5063135;28;20242;-53
2023/03/11 02:03:20;;;;;;;5.57;3.87;;;;;;;;;;5057279;28;20237;-54
2023/03/11 02:05:47;;;;;;;3.43;3.13;;;;;;;;;;5054870;28;20234;-54
2023/03/11 02:08:13;;;;;;;3.63;3.07;;;;;;;;;;5055484;28;20250;-54
2023/03/11 02:10:42;;;;;;;3.30;3.00;;;;;;;;;;5068770;28;20227;-54
2023/03/11 02:13:09;;;;;;;2.80;2.47;;;;;;;;;;5072173;28;20242;-54
2023/03/11 02:15:35;;;;;;;2.57;2.37;;;;;;;;;;5069925;28;20714;-54
2023/03/11 02:18:02;;;;;;;2.40;2.23;;;;;;;;;;5064600;28;21017;-54
2023/03/11 02:20:34;;;;;;;2.30;2.10;;;;;;;;;;5066069;28;20235;-54
2023/03/11 02:23:01;;;;;;;2.33;2.13;;;;;;;;;;5068027;28;20288;-55
2023/03/11 02:25:32;;;;;;;2.17;1.97;;;;;;;;;;5064062;28;20233;-56
2023/03/11 02:28:01;;;;;;;2.13;1.93;;;;;;;;;;5061138;28;20933;-54
2023/03/11 02:30:28;;;;;;;2.30;2.17;;;;;;;;;;5061065;28;20325;-55
2023/03/11 02:32:55;;;;;;;2.53;2.33;;;;;;;;;;5065044;28;20236;-53
2023/03/11 02:35:22;;;;;;;2.13;1.93;;;;;;;;;;5060425;28;20326;-56
2023/03/11 02:37:50;;;;;;;2.20;2.00;;;;;;;;;;5060234;28;20725;-55
2023/03/11 02:40:33;;;;;;;2.40;2.17;;;;;;;;;;5053574;28;20234;-54
2023/03/11 02:43:02;;;;;;;2.23;2.13;;;;;;;;;;5062463;28;20234;-55
2023/03/11 02:45:30;;;;;;;2.70;2.50;;;;;;;;;;5064212;28;20235;-54
2023/03/11 02:47:58;;;;;;;3.83;2.87;;;;;;;;;;5062972;28;20241;-53
2023/03/11 02:50:25;;;;;;;3.20;2.90;;;;;;;;;;5063186;28;20230;-53
2023/03/11 02:52:52;;;;;;;3.07;2.70;;;;;;;;;;5061865;28;20726;-54
2023/03/11 02:55:19;;;;;;;3.17;2.87;;;;;;;;;;5060821;28;20314;-55
2023/03/11 02:57:46;;;;;;;3.07;2.77;;;;;;;;;;5061516;28;20227;-54
2023/03/11 03:00:15;;;;;;;3.43;3.13;;;;;;;;;;5058935;28;20236;-53
2023/03/11 03:02:42;;;;;;;4.73;4.20;;;;;;;;;;5061896;28;20778;-54
2023/03/11 03:05:09;;;;;;;4.10;3.60;;;;;;;;;;5064318;28;20245;-54
2023/03/11 03:07:35;;;;;;;4.47;4.07;;;;;;;;;;5057535;28;20304;-53
2023/03/11 03:10:02;;;;;;;5.03;4.53;;;;;;;;;;5060059;28;20242;-54
2023/03/11 03:12:28;;;;;;;4.53;4.13;;;;;;;;;;5069218;28;20260;-56
2023/03/11 03:14:54;;;;;;;5.03;4.20;;;;;;;;;;5059927;28;20295;-56
2023/03/11 03:17:22;;;;;;;4.30;3.90;;;;;;;;;;5061131;28;20231;-57
2023/03/11 03:19:48;;;;;;;4.83;4.33;;;;;;;;;;5061974;28;20238;-55
2023/03/11 03:22:15;;;;;;;4.77;4.27;;;;;;;;;;5056798;28;20336;-56
2023/03/11 03:24:41;;;;;;;4.90;4.33;;;;;;;;;;5062117;28;20230;-55
2023/03/11 03:27:08;;;;;;;5.33;4.47;;;;;;;;;;5057201;28;20249;-55
2023/03/11 03:29:34;;;;;;;4.87;4.47;;;;;;;;;;5062115;28;20241;-54
2023/03/11 03:32:00;;;;;;;5.03;4.33;;;;;;;;;;5057411;28;20338;-55
2023/03/11 03:34:28;;;;;;;4.77;4.07;;;;;;;;;;5064458;28;20229;-55
2023/03/11 03:36:55;;;;;;;6.17;4.80;;;;;;;;;;5059667;28;20230;-55
2023/03/11 03:39:21;;;;;;;5.60;4.27;;;;;;;;;;5067658;28;20260;-55
2023/03/11 03:41:47;;;;;;;4.97;4.33;;;;;;;;;;5065742;28;20249;-55
2023/03/11 03:44:14;;;;;;;4.73;4.27;;;;;;;;;;5065470;28;20233;-55
2023/03/11 03:46:40;;;;;;;5.27;4.77;;;;;;;;;;5059082;28;20283;-54
2023/03/11 03:49:07;;;;;;;5.37;4.60;;;;;;;;;;5062738;28;20239;-54
2023/03/11 03:51:35;;;;;;;4.70;4.20;;;;;;;;;;5064127;28;20313;-54
2023/03/11 03:54:01;;;;;;;4.53;4.13;;;;;;;;;;5059153;28;20239;-56
2023/03/11 03:56:27;;;;;;;5.17;4.67;;;;;;;;;;5061533;28;20612;-55
2023/03/11 03:58:54;;;;;;;5.20;4.57;;;;;;;;;;5063374;28;20231;-54
2023/03/11 04:01:20;;;;;;;6.30;4.77;;;;;;;;;;5063527;28;20245;-55
2023/03/11 04:03:46;;;;;;;6.07;5.00;;;;;;;;;;5057386;28;20230;-55
2023/03/11 04:06:15;;;;;;;6.97;4.73;;;;;;;;;;5063493;28;20235;-54
2023/03/11 04:08:43;;;;;;;5.70;5.20;;;;;;;;;;5062576;28;20238;-55
2023/03/11 04:11:10;;;;;;;5.60;4.90;;;;;;;;;;5066855;28;20234;-54
2023/03/11 04:13:36;;;;;;;5.43;4.67;;;;;;;;;;5069487;28;20234;-55
2023/03/11 04:16:03;;;;;;;5.63;4.90;;;;;;;;;;5056242;28;20245;-54
2023/03/11 04:18:29;;;;;;;5.13;4.63;;;;;;;;;;5055897;28;20230;-56
2023/03/11 04:20:56;;;;;;;6.10;4.90;;;;;;;;;;5063885;28;20261;-55
2023/03/11 04:23:23;;;;;;;5.53;4.93;;;;;;;;;;5059473;28;20231;-54
2023/03/11 04:25:50;;;;;;;5.43;4.70;;;;;;;;;;5061008;28;20266;-55
2023/03/11 04:28:17;;;;;;;5.07;4.57;;;;;;;;;;5062662;28;20237;-55
2023/03/11 04:30:43;;;;;;;4.20;3.90;;;;;;;;;;5062354;28;20320;-55
2023/03/11 04:33:09;;;;;;;5.23;4.40;;;;;;;;;;5069061;28;20237;-55
2023/03/11 04:35:37;;;;;;;5.60;5.00;;;;;;;;;;5064616;28;20726;-55
2023/03/11 04:38:04;;;;;;;5.17;4.67;;;;;;;;;;5062474;28;20237;-54
2023/03/11 04:40:30;;;;;;;7.50;5.97;;;;;;;;;;5067055;28;20269;-54
2023/03/11 04:42:58;;;;;;;5.30;4.50;;;;;;;;;;5058493;28;20272;-55
2023/03/11 04:45:24;;;;;;;6.93;4.47;;;;;;;;;;5065341;28;20234;-54
2023/03/11 04:47:51;;;;;;;6.47;4.47;;;;;;;;;;5061415;28;20239;-55
2023/03/11 04:50:18;;;;;;;5.30;3.93;;;;;;;;;;5060310;28;20263;-56
2023/03/11 04:52:44;;;;;;;4.67;3.77;;;;;;;;;;5068180;28;20756;-54
2023/03/11 04:55:12;;;;;;;3.80;3.50;;;;;;;;;;5075016;28;20318;-54
2023/03/11 04:57:39;;;;;;;3.10;2.80;;;;;;;;;;5067207;28;20228;-55
2023/03/11 05:00:10;;;;;;;4.03;3.27;;;;;;;;;;5070182;28;20743;-54
2023/03/11 05:02:36;;;;;;;4.40;3.43;;;;;;;;;;5063104;28;20255;-54
2023/03/11 05:05:03;;;;;;;5.27;3.93;;;;;;;;;;5060541;28;20228;-58
2023/03/11 05:07:29;;;;;;;3.70;3.33;;;;;;;;;;5064466;28;20234;-54
2023/03/11 05:09:56;;;;;;;3.70;3.37;;;;;;;;;;5063694;28;20241;-55
2023/03/11 05:12:23;;;;;;;3.40;3.10;;;;;;;;;;5055089;28;20237;-55
2023/03/11 05:14:50;;;;;;;3.33;2.97;;;;;;;;;;5064054;28;20317;-55
2023/03/11 05:17:18;;;;;;;4.07;3.77;;;;;;;;;;5061681;28;20278;-53
2023/03/11 05:19:45;;;;;;;4.10;3.70;;;;;;;;;;5059721;28;20276;-54
2023/03/11 05:22:11;;;;;;;3.90;3.47;;;;;;;;;;5061722;28;20229;-55
2023/03/11 05:24:38;;;;;;;3.53;3.23;;;;;;;;;;5065385;28;20231;-54
2023/03/11 05:27:05;;;;;;;4.27;3.57;;;;;;;;;;5062729;28;20328;-53
2023/03/11 05:29:31;;;;;;;3.37;3.07;;;;;;;;;;5065669;28;20235;-53
2023/03/11 05:31:58;;;;;;;6.50;3.43;;;;;;;;;;5063769;28;20799;-60
2023/03/11 05:34:26;;;;;;;3.47;3.17;;;;;;;;;;5066999;28;20238;-53
2023/03/11 05:36:53;;;;;;;4.37;3.73;;;;;;;;;;5064416;28;20258;-53
2023/03/11 05:39:19;;;;;;;4.47;4.00;;;;;;;;;;5066986;28;20913;-52
2023/03/11 05:41:46;;;;;;;3.93;3.47;;;;;;;;;;5063952;28;20230;-54
2023/03/11 05:44:12;;;;;;;5.07;4.57;;;;;;;;;;5065674;28;20314;-53
2023/03/11 05:46:39;;;;;;;5.50;4.20;;;;;;;;;;5063700;28;20229;-54
2023/03/11 05:49:06;;;;;;;5.27;3.97;;;;;;;;;;5064295;28;20234;-53
2023/03/11 05:51:34;;;;;;;5.37;4.60;;;;;;;;;;5061946;28;20224;-54
2023/03/11 05:54:01;;;;;;;6.97;4.80;;;;;;;;;;5060068;28;20234;-53
2023/03/11 05:56:27;;;;;;;4.60;4.03;;;;;;;;;;5069557;28;20770;-53
2023/03/11 05:58:54;;;;;;;6.37;5.50;;;;;;;;;;5061194;28;20601;-53
2023/03/11 06:01:20;;;;;;;4.47;4.07;;;;;;;;;;5061866;28;20246;-52
2023/03/11 06:03:47;;;;;;;5.47;4.60;;;;;;;;;;5065433;28;20247;-53
2023/03/11 06:06:14;;;;;;;6.13;5.53;;;;;;;;;;5065472;28;20307;-54
2023/03/11 06:08:48;;;;;;;6.60;4.80;;;;;;;;;;5061736;28;20223;-54
2023/03/11 06:11:15;;;;;;;7.57;5.13;;;;;;;;;;5058819;28;20246;-53
2023/03/11 06:13:42;;;;;;;5.87;5.27;;;;;;;;;;5061600;28;20270;-55
2023/03/11 06:16:08;;;;;;;5.80;5.20;;;;;;;;;;5065140;28;20777;-53
2023/03/11 06:18:35;;;;;;;5.57;4.50;;;;;;;;;;5062342;28;20314;-53
2023/03/11 06:21:02;;;;;;;8.33;6.47;;;;;;;;;;5061064;28;20241;-53
2023/03/11 06:23:29;;;;;;;7.67;6.00;;;;;;;;;;5065646;28;20231;-58
2023/03/11 06:25:58;;;;;;;6.90;6.13;;;;;;;;;;5070286;28;20240;-53
2023/03/11 06:28:24;;;;;;;8.43;6.77;;;;;;;;;;5068755;28;20237;-53
2023/03/11 06:30:51;;;;;;;7.40;5.90;;;;;;;;;;5078657;28;20227;-54
2023/03/11 06:33:17;;;;;;;6.20;5.60;;;;;;;;;;5069985;28;20242;-53
2023/03/11 06:35:44;;;;;;;7.43;6.70;;;;;;;;;;5075109;28;20242;-54
2023/03/11 06:38:11;;;;;;;7.63;5.77;;;;;;;;;;5072741;28;20881;-54
2023/03/11 06:40:37;;;;;;;6.83;5.90;;;;;;;;;;5063163;28;20678;-54
2023/03/11 06:43:05;;;;;;;6.60;6.00;;;;;;;;;;5062192;28;20235;-53
2023/03/11 06:45:32;;;;;;;7.83;5.93;;;;;;;;;;5063086;28;20326;-53
2023/03/11 06:47:58;;;;;;;7.63;6.00;;;;;;;;;;5065206;28;20238;-59
2023/03/11 06:50:25;;;;;;;7.40;6.40;;;;;;;;;;5064857;28;20359;-54
2023/03/11 06:52:51;;;;;;;9.93;7.13;;;;;;;;;;5063740;28;20311;-55
2023/03/11 06:55:20;;;;;;;7.93;6.67;;;;;;;;;;5064724;28;20361;-54
2023/03/11 06:57:46;;;;;;;8.33;6.60;;;;;;;;;;5064351;28;20703;-54
2023/03/11 07:00:15;;;;;;;9.37;5.90;;;;;;;;;;5060197;28;20231;-54
2023/03/11 07:02:41;;;;;;;6.17;5.47;;;;;;;;;;5064520;28;20986;-53
2023/03/11 07:05:08;;;;;;;8.53;6.13;;;;;;;;;;5065490;28;20231;-53
2023/03/11 07:07:35;;;;;;;11.43;6.70;;;;;;;;;;5063159;28;20280;-53
2023/03/11 07:10:01;;;;;;;7.03;6.30;;;;;;;;;;5064413;28;20323;-52
2023/03/11 07:12:28;;;;;;;7.10;6.23;;;;;;;;;;5059779;28;20315;-53
2023/03/11 07:14:55;;;;;;;10.33;6.53;;;;;;;;;;5063237;28;20316;-53
2023/03/11 07:17:24;;;;;;;6.93;5.73;;;;;;;;;;5065304;28;20758;-53
2023/03/11 07:19:50;;;;;;;8.63;6.27;;;;;;;;;;5064364;28;20230;-53
2023/03/11 07:22:17;;;;;;;10.03;5.93;;;;;;;;;;5065909;28;20238;-53
2023/03/11 07:24:45;;;;;;;7.33;6.63;;;;;;;;;;5059273;28;20242;-54
2023/03/11 07:27:11;;;;;;;8.33;6.57;;;;;;;;;;5063690;28;20258;-54
2023/03/11 07:29:38;;;;;;;8.63;6.77;;;;;;;;;;5063271;28;20253;-54
2023/03/11 07:32:06;;;;;;;6.73;5.87;;;;;;;;;;5062610;28;20289;-54
2023/03/11 07:34:34;;;;;;;9.97;6.50;;;;;;;;;;5064540;28;20732;-54
2023/03/11 07:37:01;;;;;;;7.73;6.43;;;;;;;;;;5062705;28;20696;-54
2023/03/11 07:39:27;;;;;;;7.63;6.00;;;;;;;;;;5064372;28;20234;-54
2023/03/11 07:41:54;;;;;;;9.17;7.27;;;;;;;;;;5061089;28;20240;-53
2023/03/11 07:44:21;;;;;;;7.87;7.07;;;;;;;;;;5062521;28;20284;-54
2023/03/11 07:46:47;;;;;;;8.00;7.03;;;;;;;;;;5061222;28;20870;-54
2023/03/11 07:49:14;;;;;;;8.60;7.73;;;;;;;;;;5060962;28;20253;-55
2023/03/11 07:51:42;;;;;;;7.07;6.37;;;;;;;;;;5059033;28;20233;-54
2023/03/11 07:54:10;;;;;;;15.70;6.63;;;;;;;;;;5062252;28;20230;-55
2023/03/11 07:56:37;;;;;;;8.50;7.17;;;;;;;;;;5057681;28;20236;-55
2023/03/11 07:59:04;;;;;;;9.07;6.50;;;;;;;;;;5050376;28;20238;-55
2023/03/11 08:01:35;;;;;;;10.07;7.63;;;;;;;;;;5061693;28;20243;-57
2023/03/11 08:04:01;;;;;;;8.50;6.97;;;;;;;;;;5065180;28;20273;-55
2023/03/11 08:06:30;;;;;;;8.73;7.07;;;;;;;;;;5062729;28;20234;-55
2023/03/11 08:08:59;;;;;;;10.10;7.77;;;;;;;;;;5061722;28;20678;-55
2023/03/11 08:11:26;;;;;;;9.50;7.73;;;;;;;;;;5063745;28;20706;-56
2023/03/11 08:13:52;;;;;;;8.00;7.07;;;;;;;;;;5063379;28;20257;-56
2023/03/11 08:16:20;;;;;;;7.93;7.10;;;;;;;;;;5061251;28;20226;-56
2023/03/11 08:18:47;;;;;;;7.33;6.63;;;;;;;;;;5063383;28;20287;-56
2023/03/11 08:21:14;;;;;;;9.50;6.63;;;;;;;;;;5060347;28;20722;-57
2023/03/11 08:23:41;;;;;;;8.93;7.03;;;;;;;;;;5061635;28;20251;-55
2023/03/11 08:26:11;;;;;;;8.43;7.60;;;;;;;;;;5061659;28;20254;-56
2023/03/11 08:28:37;;;;;;;7.90;7.07;;;;;;;;;;5065598;28;20238;-55
2023/03/11 08:31:11;;;;;;;7.37;6.67;;;;;;;;;;5066114;28;20234;-57
2023/03/11 08:33:38;;;;;;;10.33;7.80;;;;;;;;;;5067620;28;20237;-55
2023/03/11 08:36:04;;;;;;;8.03;7.10;;;;;;;;;;5071069;28;20268;-56
2023/03/11 08:38:31;;;;;;;12.53;7.20;;;;;;;;;;5073928;28;20253;-56
2023/03/11 08:40:57;;;;;;;10.37;8.43;;;;;;;;;;5074628;28;20735;-57
2023/03/11 08:43:25;;;;;;;9.90;7.33;;;;;;;;;;5075191;28;20242;-57
2023/03/11 08:45:52;;;;;;;9.50;7.60;;;;;;;;;;5071821;28;20257;-56
2023/03/11 08:48:18;;;;;;;10.43;8.10;;;;;;;;;;5065937;28;20573;-56
2023/03/11 08:50:45;;;;;;;6.73;6.03;;;;;;;;;;5065183;28;20313;-56
2023/03/11 08:53:11;;;;;;;6.97;6.27;;;;;;;;;;5065689;28;20802;-56
2023/03/11 08:55:38;;;;;;;8.27;6.83;;;;;;;;;;5067841;28;20238;-56
2023/03/11 08:58:04;;;;;;;7.10;6.10;;;;;;;;;;5064030;28;20770;-57
2023/03/11 09:00:32;;;;;;;8.83;6.87;;;;;;;;;;5064214;28;20610;-58
2023/03/11 09:02:59;;;;;;;7.07;6.23;;;;;;;;;;5067017;28;20246;-57
2023/03/11 09:05:26;;;;;;;9.03;7.47;;;;;;;;;;5067167;28;20727;-55
2023/03/11 09:07:53;;;;;;;9.00;7.00;;;;;;;;;;5066859;28;20231;-55
2023/03/11 09:10:19;;;;;;;8.53;7.50;;;;;;;;;;5062660;28;21630;-56
2023/03/11 09:12:46;;;;;;;8.13;6.83;;;;;;;;;;5065621;28;20234;-54
2023/03/11 09:15:12;;;;;;;12.87;7.37;;;;;;;;;;5065872;28;20225;-55
2023/03/11 09:17:40;;;;;;;10.30;8.77;;;;;;;;;;5063775;28;20254;-55
2023/03/11 09:20:07;;;;;;;7.73;6.67;;;;;;;;;;5060843;28;20230;-55
2023/03/11 09:22:34;;;;;;;12.47;7.40;;;;;;;;;;5064584;28;20235;-55
2023/03/11 09:25:00;;;;;;;8.67;7.37;;;;;;;;;;5064924;28;20321;-55
2023/03/11 09:27:27;;;;;;;9.60;7.33;;;;;;;;;;5065800;28;20239;-55
2023/03/11 09:29:54;;;;;;;7.83;6.50;;;;;;;;;;5069100;28;20749;-57
2023/03/11 09:32:20;;;;;;;7.57;6.83;;;;;;;;;;5065066;28;20619;-55
2023/03/11 09:34:48;;;;;;;7.67;6.93;;;;;;;;;;5066354;28;20231;-55
2023/03/11 09:37:15;;;;;;;9.50;7.27;;;;;;;;;;5064391;28;20262;-55
2023/03/11 09:39:41;;;;;;;8.87;7.50;;;;;;;;;;5064802;28;20323;-55
2023/03/11 09:42:14;;;;;;;7.73;6.43;;;;;;;;;;5062988;28;20325;-56
2023/03/11 09:44:43;;;;;;;7.33;6.43;;;;;;;;;;5061137;28;20272;-55
2023/03/11 09:47:15;;;;;;;8.87;7.20;;;;;;;;;;5061346;28;20230;-56
2023/03/11 09:50:06;;;;;;;10.33;7.73;;;;;;;;;;5062514;28;20609;-55
2023/03/11 09:52:38;;;;;;;8.43;7.43;;;;;;;;;;5044800;28;20379;-55
2023/03/11 09:55:05;;;;;;;7.63;6.83;;;;;;;;;;5059807;28;20966;-54
2023/03/11 09:57:33;;;;;;;9.87;7.17;;;;;;;;;;5062100;28;20235;-55
2023/03/11 10:00:03;;;;;;;7.47;6.77;;;;;;;;;;5063232;28;20326;-55
2023/03/11 10:02:31;;;;;;;10.70;7.90;;;;;;;;;;5057308;28;20244;-55
2023/03/11 10:04:59;;;;;;;10.13;7.57;;;;;;;;;;5064294;28;20241;-56
2023/03/11 10:07:27;;;;;;;13.03;9.10;;;;;;;;;;5060437;28;20222;-55
2023/03/11 10:09:56;;;;;;;9.67;7.93;;;;;;;;;;5062351;28;20230;-56
2023/03/11 10:12:30;;;;;;;8.83;7.93;;;;;;;;;;5057040;28;20601;-56
2023/03/11 10:15:05;;;;;;;10.50;8.20;;;;;;;;;;5062206;28;20291;-55
2023/03/11 10:17:40;;;;;;;10.23;8.43;;;;;;;;;;5056482;28;20734;-55
2023/03/11 10:20:08;;;;;;;9.90;7.87;;;;;;;;;;5061798;28;20230;-56
2023/03/11 10:22:39;;;;;;;9.60;8.60;;;;;;;;;;5061958;28;20260;-56
2023/03/11 10:25:11;;;;;;;12.40;8.53;;;;;;;;;;5059549;28;20305;-55
2023/03/11 10:27:41;;;;;;;10.70;8.43;;;;;;;;;;5062633;28;20288;-56
2023/03/11 10:30:11;;;;;;;10.93;8.27;;;;;;;;;;5059046;28;20245;-57
2023/03/11 10:32:40;;;;;;;9.23;7.80;;;;;;;;;;5065506;28;20242;-54
2023/03/11 10:35:14;;;;;;;9.30;8.30;;;;;;;;;;5064958;28;20670;-54
2023/03/11 10:37:43;;;;;;;9.27;8.33;;;;;;;;;;5063373;28;20974;-55
2023/03/11 10:40:18;;;;;;;11.27;7.53;;;;;;;;;;5061174;28;20904;-55
2023/03/11 10:42:45;;;;;;;10.70;8.50;;;;;;;;;;5064086;28;20320;-54
2023/03/11 10:45:12;;;;;;;10.57;7.67;;;;;;;;;;5053950;28;20249;-55
2023/03/11 10:47:38;;;;;;;8.83;7.93;;;;;;;;;;5056957;28;20259;-57
2023/03/11 10:50:06;;;;;;;8.67;7.87;;;;;;;;;;5068791;28;20299;-54
2023/03/11 10:52:36;;;;;;;8.60;7.80;;;;;;;;;;5061397;28;20238;-54
2023/03/11 10:55:03;;;;;;;8.63;7.53;;;;;;;;;;5065116;28;20238;-54
2023/03/11 10:57:33;;;;;;;10.70;8.93;;;;;;;;;;5067830;28;20311;-53
2023/03/11 11:00:01;;;;;;;10.90;9.33;;;;;;;;;;5063100;28;20244;-51
2023/03/11 11:02:28;;;;;;;9.27;8.30;;;;;;;;;;5059865;28;20238;-53
2023/03/11 11:05:06;;;;;;;9.47;8.47;;;;;;;;;;5062629;28;20230;-55
2023/03/11 11:07:34;;;;;;;10.00;9.00;;;;;;;;;;5058388;28;20329;-52
2023/03/11 11:10:13;;;;;;;10.23;8.87;;;;;;;;;;5062322;28;20839;-53
2023/03/11 11:12:50;;;;;;;9.17;8.17;;;;;;;;;;5059974;28;20230;-51
2023/03/11 11:15:20;;;;;;;9.53;8.37;;;;;;;;;;5062718;28;20742;-52
2023/03/11 11:17:47;;;;;;;10.73;8.83;;;;;;;;;;5055442;28;20276;-54
2023/03/11 11:20:16;;;;;;;10.87;7.43;;;;;;;;;;5062364;28;20226;-52
2023/03/11 11:22:49;;;;;;;8.60;7.77;;;;;;;;;;5058958;28;20234;-53
2023/03/11 11:25:26;;;;;;;9.73;8.70;;;;;;;;;;5059612;28;20734;-52
2023/03/11 11:27:57;;;;;;;9.27;8.30;;;;;;;;;;5060308;28;20324;-52
2023/03/11 11:30:24;;;;;;;8.13;7.33;;;;;;;;;;5060340;28;20326;-51
2023/03/11 11:32:52;;;;;;;9.10;8.10;;;;;;;;;;5059909;28;20329;-52
2023/03/11 11:35:19;;;;;;;8.67;7.63;;;;;;;;;;5063159;28;20314;-59
2023/03/11 11:37:47;;;;;;;8.43;7.53;;;;;;;;;;5059332;28;20288;-52
2023/03/11 11:40:21;;;;;;;9.30;8.40;;;;;;;;;;5073356;28;20230;-57
2023/03/11 11:42:50;;;;;;;11.47;8.17;;;;;;;;;;5077032;28;20261;-52
2023/03/11 11:45:22;;;;;;;10.63;8.27;;;;;;;;;;5078818;28;20323;-57
2023/03/11 11:47:51;;;;;;;9.07;8.10;;;;;;;;;;5077559;28;20241;-53
2023/03/11 11:50:19;;;;;;;9.53;8.50;;;;;;;;;;5075924;28;20261;-53
2023/03/11 11:52:49;;;;;;;12.13;8.90;;;;;;;;;;5078539;28;20240;-51
2023/03/11 11:55:19;;;;;;;10.23;8.17;;;;;;;;;;5077261;28;20246;-52
2023/03/11 11:57:45;;;;;;;10.07;8.80;;;;;;;;;;5073346;28;20312;-50
2023/03/11 12:00:17;;;;;;;9.73;8.43;;;;;;;;;;5077897;28;20245;-53
2023/03/11 12:02:53;;;;;;;9.40;8.50;;;;;;;;;;5081196;27;20230;-56
2023/03/11 12:05:23;;;;;;;9.67;8.60;;;;;;;;;;5080651;28;20230;-52
2023/03/11 12:08:06;;;;;;;9.27;8.27;;;;;;;;;;5084381;28;20241;-52
2023/03/11 12:10:33;;;;;;;8.87;7.97;;;;;;;;;;5081777;28;20242;-51
2023/03/11 12:13:13;;;;;;;8.93;8.13;;;;;;;;;;5083153;28;20238;-52
2023/03/11 12:15:41;;;;;;;8.10;7.30;;;;;;;;;;5081274;28;20226;-52
2023/03/11 12:18:13;;;;;;;8.17;7.10;;;;;;;;;;5079516;28;20263;-55
2023/03/11 12:20:41;;;;;;;8.80;7.20;;;;;;;;;;5080439;28;20265;-52
2023/03/11 12:23:18;;;;;;;7.90;7.10;;;;;;;;;;5085657;28;20804;-52
2023/03/11 12:25:48;;;;;;;9.13;7.10;;;;;;;;;;5066092;28;20930;-52
2023/03/11 12:28:18;;;;;;;8.47;7.67;;;;;;;;;;5066933;28;20234;-51
2023/03/11 12:30:46;;;;;;;7.53;6.80;;;;;;;;;;5061917;28;20739;-52
2023/03/11 12:33:17;;;;;;;7.13;6.10;;;;;;;;;;5063384;28;20249;-51
2023/03/11 12:35:48;;;;;;;6.57;5.97;;;;;;;;;;5068954;28;20241;-52
2023/03/11 12:38:16;;;;;;;8.90;7.27;;;;;;;;;;5064533;28;20234;-52
2023/03/11 12:40:47;;;;;;;7.17;6.57;;;;;;;;;;5059720;28;20237;-52
2023/03/11 12:43:28;;;;;;;7.53;6.73;;;;;;;;;;5061890;28;20940;-52
2023/03/11 12:45:58;;;;;;;7.53;6.60;;;;;;;;;;5064362;28;20233;-51
2023/03/11 12:48:31;;;;;;;9.83;7.17;;;;;;;;;;5062632;28;20676;-51
2023/03/11 12:50:58;;;;;;;8.17;7.13;;;;;;;;;;5058883;28;20315;-54
2023/03/11 12:53:40;;;;;;;6.60;6.00;;;;;;;;;;5061885;28;20247;-51
2023/03/11 12:56:10;;;;;;;7.63;6.83;;;;;;;;;;5060775;28;20313;-52
2023/03/11 12:58:55;;;;;;;7.73;6.80;;;;;;;;;;5064249;28;20246;-53
2023/03/11 13:01:29;;;;;;;7.77;6.97;;;;;;;;;;5068492;28;20785;-52
2023/03/11 13:04:04;;;;;;;7.00;6.27;;;;;;;;;;5066041;28;20230;-54
2023/03/11 13:06:41;;;;;;;9.17;6.43;;;;;;;;;;5068492;28;20311;-51
2023/03/11 13:09:13;;;;;;;9.43;6.63;;;;;;;;;;5063832;28;20226;-53
2023/03/11 13:11:42;;;;;;;7.17;6.47;;;;;;;;;;5064668;28;20245;-51
2023/03/11 13:14:36;;;;;;;7.93;6.37;;;;;;;;;;5061714;28;20231;-52
2023/03/11 13:17:21;;;;;;;7.93;6.90;;;;;;;;;;5023909;28;20226;-51
2023/03/11 13:19:50;;;;;;;7.27;6.57;;;;;;;;;;5061646;28;20313;-51
2023/03/11 13:22:35;;;;;;;7.57;6.57;;;;;;;;;;5061680;28;20245;-51
2023/03/11 13:25:19;;;;;;;10.77;6.63;;;;;;;;;;5065270;28;20238;-52
2023/03/11 13:27:48;;;;;;;7.23;6.07;;;;;;;;;;5061380;28;20329;-50
2023/03/11 13:30:18;;;;;;;8.83;6.30;;;;;;;;;;5062032;28;20223;-51
2023/03/11 13:33:07;;;;;;;8.50;6.80;;;;;;;;;;5063628;28;20923;-52
2023/03/11 13:35:42;;;;;;;6.73;5.80;;;;;;;;;;5065111;28;20230;-53
2023/03/11 13:38:23;;;;;;;6.07;5.23;;;;;;;;;;5063032;28;20234;-54
2023/03/11 13:40:51;;;;;;;5.77;5.20;;;;;;;;;;5061614;28;20234;-53
2023/03/11 13:43:19;;;;;;;4.97;4.47;;;;;;;;;;5060358;28;20238;-52
2023/03/11 13:45:48;;;;;;;6.13;5.00;;;;;;;;;;5069918;28;20244;-51
2023/03/11 13:48:16;;;;;;;5.03;4.53;;;;;;;;;;5068396;28;20232;-51
2023/03/11 13:50:47;;;;;;;4.90;4.27;;;;;;;;;;5062934;28;20230;-51
2023/03/11 13:53:17;;;;;;;4.73;4.33;;;;;;;;;;5061546;28;20237;-52
2023/03/11 13:55:45;;;;;;;3.97;3.50;;;;;;;;;;5061724;28;20284;-51
2023/03/11 13:58:16;;;;;;;5.17;4.67;;;;;;;;;;5062218;28;20239;-52
2023/03/11 14:00:47;;;;;;;4.30;3.70;;;;;;;;;;5061806;28;20236;-54
2023/03/11 14:03:17;;;;;;;6.23;4.40;;;;;;;;;;5062632;28;20234;-52
2023/03/11 14:05:46;;;;;;;5.57;3.77;;;;;;;;;;5061145;28;20310;-52
2023/03/11 14:08:18;;;;;;;4.67;4.27;;;;;;;;;;5061644;28;20237;-52
2023/03/11 14:10:51;;;;;;;5.17;4.07;;;;;;;;;;5059449;28;20733;-51
2023/03/11 14:13:18;;;;;;;5.20;4.47;;;;;;;;;;5061781;27;20240;-51
2023/03/11 14:15:51;;;;;;;4.33;3.90;;;;;;;;;;5061760;28;20233;-53
2023/03/11 14:18:26;;;;;;;4.80;4.03;;;;;;;;;;5060134;28;20993;-51
2023/03/11 14:20:54;;;;;;;4.87;4.47;;;;;;;;;;5061152;28;20344;-51
2023/03/11 14:23:21;;;;;;;4.90;4.00;;;;;;;;;;5061106;28;20322;-51
2023/03/11 14:25:47;;;;;;;6.30;4.77;;;;;;;;;;5058198;28;20237;-51
2023/03/11 14:28:18;;;;;;;4.37;3.97;;;;;;;;;;5062599;28;20650;-52
2023/03/11 14:30:55;;;;;;;3.93;3.23;;;;;;;;;;5055654;28;20242;-53
2023/03/11 14:33:22;;;;;;;3.97;3.53;;;;;;;;;;5064215;28;20339;-54
2023/03/11 14:35:51;;;;;;;6.60;3.87;;;;;;;;;;5059989;28;20241;-52
2023/03/11 14:38:23;;;;;;;3.97;3.57;;;;;;;;;;5062554;28;20330;-51
2023/03/11 14:40:50;;;;;;;3.50;3.17;;;;;;;;;;5059666;28;20234;-52
2023/03/11 14:43:17;;;;;;;3.53;3.20;;;;;;;;;;5063987;28;20746;-51
2023/03/11 14:45:44;;;;;;;4.30;3.33;;;;;;;;;;5062168;28;20794;-51